Time;durP1;ratioP1;P1;durP2;ratioP2;P2;SDS_P1;SDS_P2;PMS_P1;PMS_P2;Temp;Humidity;BMP_temperature;BMP_pressure;BME280_temperature;BME280_humidity;BME280_pressure;Samples;Min_cycle;Max_cycle;Signal;HPM_P1;HPM_P2
2022/06/23 00:01:53;;;;;;;0.80;0.57;;;;;;;14.23;90.38;101480.31;5044980;28;20044;-70
2022/06/23 00:04:23;;;;;;;1.60;0.83;;;;;;;14.12;91.08;101462.84;5047463;28;20109;-70
2022/06/23 00:06:53;;;;;;;0.95;0.77;;;;;;;14.08;92.73;101470.28;5054046;28;20059;-70
2022/06/23 00:09:37;;;;;;;2.30;1.20;;;;;;;14.12;92.81;101470.81;5061354;28;20021;-70
2022/06/23 00:12:25;;;;;;;1.27;0.90;;;;;;;14.10;94.92;101472.78;5068827;28;20036;-70
2022/06/23 00:15:14;;;;;;;1.00;0.90;;;;;;;14.07;96.63;101473.13;5060048;28;20040;-70
2022/06/23 00:17:53;;;;;;;0.95;0.73;;;;;;;14.01;97.51;101465.78;5056960;28;20044;-70
2022/06/23 00:20:37;;;;;;;1.73;1.08;;;;;;;13.84;98.89;101468.31;5068853;28;20482;-69
2022/06/23 00:23:11;;;;;;;2.00;1.70;;;;;;;13.82;100.00;101472.94;5068621;28;20052;-70
2022/06/23 00:25:50;;;;;;;1.80;1.00;;;;;;;13.83;100.00;101479.94;5068544;28;20480;-70
2022/06/23 00:28:29;;;;;;;2.42;1.33;;;;;;;13.78;100.00;101474.25;5067858;28;20025;-69
2022/06/23 00:31:00;;;;;;;2.53;1.50;;;;;;;13.66;100.00;101470.19;5067942;28;20044;-69
2022/06/23 00:33:30;;;;;;;2.67;1.65;;;;;;;13.56;100.00;101464.97;5071681;28;20449;-70
2022/06/23 00:35:58;;;;;;;6.10;1.13;;;;;;;13.40;100.00;101452.44;5071685;28;20466;-69
2022/06/23 00:38:25;;;;;;;2.33;1.10;;;;;;;13.34;100.00;101455.69;5070974;28;20135;-70
2022/06/23 00:40:51;;;;;;;1.77;1.27;;;;;;;13.43;100.00;101465.38;5087490;28;20349;-70
2022/06/23 00:43:17;;;;;;;2.53;1.80;;;;;;;13.34;100.00;101468.94;5071387;28;20024;-70
2022/06/23 00:45:43;;;;;;;2.72;1.13;;;;;;;13.27;100.00;101475.81;5071754;28;20082;-70
2022/06/23 00:48:30;;;;;;;1.60;1.40;;;;;;;13.20;100.00;101470.28;5070065;28;20056;-70
2022/06/23 00:51:04;;;;;;;1.95;1.20;;;;;;;13.23;100.00;101474.44;5071955;28;20514;-70
2022/06/23 00:53:46;;;;;;;3.83;1.30;;;;;;;13.28;100.00;101469.50;5071301;28;20078;-70
2022/06/23 00:56:18;;;;;;;3.17;1.25;;;;;;;13.20;100.00;101477.41;5071546;28;20496;-70
2022/06/23 00:58:54;;;;;;;2.60;1.48;;;;;;;13.07;100.00;101464.53;5068016;28;20158;-70
2022/06/23 01:01:46;;;;;;;2.90;1.73;;;;;;;13.08;100.00;101467.00;5068643;28;20017;-70
2022/06/23 01:04:30;;;;;;;2.90;2.05;;;;;;;13.02;100.00;101462.34;5070653;28;20040;-70
2022/06/23 01:07:37;;;;;;;2.67;1.55;;;;;;;13.08;100.00;101469.66;5054219;28;20049;-70
2022/06/23 01:10:44;;;;;;;2.88;1.50;;;;;;;13.11;100.00;101460.59;5051478;28;20032;-70
2022/06/23 01:13:47;;;;;;;2.83;1.77;;;;;;;13.05;100.00;101462.03;4969525;28;20054;-70
2022/06/23 01:16:22;;;;;;;3.40;2.40;;;;;;;12.95;100.00;101467.38;4952475;28;20380;-70
2022/06/23 01:18:59;;;;;;;3.28;1.77;;;;;;;12.94;100.00;101459.59;4969396;28;20035;-70
2022/06/23 01:21:32;;;;;;;2.42;1.73;;;;;;;12.87;100.00;101453.22;4969131;28;20406;-70
2022/06/23 01:24:06;;;;;;;4.32;1.77;;;;;;;12.89;100.00;101461.84;4969046;28;20026;-70
2022/06/23 01:26:37;;;;;;;3.15;2.22;;;;;;;12.74;100.00;101449.16;4968611;28;20097;-69
2022/06/23 01:29:12;;;;;;;2.17;1.63;;;;;;;12.84;100.00;101464.13;4968572;28;20043;-70
2022/06/23 01:31:44;;;;;;;3.38;2.17;;;;;;;12.84;100.00;101467.59;4948977;28;20035;-70
2022/06/23 01:34:19;;;;;;;7.15;1.95;;;;;;;12.71;100.00;101451.25;4962613;28;20030;-70
2022/06/23 01:37:16;;;;;;;4.45;2.58;;;;;;;12.73;100.00;101460.69;4962976;28;20141;-70
2022/06/23 01:39:52;;;;;;;2.67;2.05;;;;;;;12.73;100.00;101452.75;4967693;28;20094;-69
2022/06/23 01:42:35;;;;;;;4.10;1.63;;;;;;;12.73;100.00;101452.75;4968883;28;20129;-70
2022/06/23 01:45:08;;;;;;;3.85;1.95;;;;;;;12.69;100.00;101451.38;4959777;28;20102;-70
2022/06/23 01:47:39;;;;;;;2.83;2.03;;;;;;;12.72;100.00;101452.94;4971430;28;20520;-69
2022/06/23 01:50:14;;;;;;;3.33;1.65;;;;;;;12.72;100.00;101450.28;5050230;28;20469;-69
2022/06/23 01:52:45;;;;;;;3.63;1.60;;;;;;;12.71;100.00;101459.19;5048185;28;20029;-69
2022/06/23 01:55:15;;;;;;;;;;;;;;;12.73;100.00;101458.06;5050224;28;20035;-70
2022/06/23 01:57:53;;;;;;;2.55;1.92;;;;;;;12.74;100.00;101451.78;5050089;28;19945;-70
2022/06/23 02:00:21;;;;;;;2.00;1.35;;;;;;;12.70;100.00;101439.00;5049566;28;20086;-69
2022/06/23 02:03:02;;;;;;;3.33;1.83;;;;;;;12.82;100.00;101455.50;5050674;28;20029;-70
2022/06/23 02:05:37;;;;;;;2.55;1.58;;;;;;;12.70;100.00;101453.06;5048950;28;20501;-70
2022/06/23 02:08:34;;;;;;;3.30;1.90;;;;;;;12.65;100.00;101454.50;5048336;28;20059;-70
2022/06/23 02:11:18;;;;;;;3.60;1.80;;;;;;;12.65;100.00;101459.78;5047281;28;20025;-69
2022/06/23 02:13:55;;;;;;;3.72;1.85;;;;;;;12.64;100.00;101443.06;5050794;28;20108;-69
2022/06/23 02:16:32;;;;;;;4.53;2.00;;;;;;;12.65;100.00;101443.88;5048805;28;20044;-70
2022/06/23 02:19:00;;;;;;;2.47;1.88;;;;;;;12.67;100.00;101448.09;5048779;28;20027;-70
2022/06/23 02:21:36;;;;;;;2.40;1.90;;;;;;;12.64;100.00;101436.94;5050476;28;20079;-69
2022/06/23 02:24:08;;;;;;;7.07;2.25;;;;;;;12.65;100.00;101447.41;5049708;28;20024;-70
2022/06/23 02:27:05;;;;;;;4.50;2.30;;;;;;;12.58;100.00;101443.66;5048748;28;20021;-70
2022/06/23 02:29:41;;;;;;;2.78;1.48;;;;;;;12.59;100.00;101432.09;5050215;28;20024;-69
2022/06/23 02:32:19;;;;;;;2.05;1.42;;;;;;;12.45;100.00;101425.47;5050111;28;20033;-69
2022/06/23 02:34:53;;;;;;;4.57;1.67;;;;;;;12.48;100.00;101453.50;5028584;28;20032;-69
2022/06/23 02:37:43;;;;;;;5.82;2.28;;;;;;;12.49;100.00;101455.16;5031532;28;20120;-69
2022/06/23 02:40:17;;;;;;;4.00;1.38;;;;;;;12.49;100.00;101444.56;5029701;28;20028;-69
2022/06/23 02:42:47;;;;;;;6.10;2.70;;;;;;;12.52;100.00;101438.94;5049572;28;20055;-69
2022/06/23 02:45:29;;;;;;;3.50;2.00;;;;;;;12.57;100.00;101433.25;5046599;28;20385;-69
2022/06/23 02:48:24;;;;;;;3.20;1.92;;;;;;;12.60;100.00;101436.41;5049643;28;20453;-70
2022/06/23 02:51:22;;;;;;;2.58;1.75;;;;;;;12.53;100.00;101407.03;4969002;28;20568;-70
2022/06/23 02:54:14;;;;;;;4.32;1.95;;;;;;;12.59;100.00;101410.91;4967221;28;20045;-70
2022/06/23 02:56:39;;;;;;;2.35;1.55;;;;;;;12.69;100.00;101416.13;4967924;28;20035;-70
2022/06/23 02:59:13;;;;;;;1.75;1.17;;;;;;;12.65;100.00;101417.41;4968507;28;20043;-69
2022/06/23 03:01:55;;;;;;;3.58;1.65;;;;;;;12.74;100.00;101422.66;4968268;28;20513;-69
2022/06/23 03:04:32;;;;;;;4.20;1.90;;;;;;;12.76;100.00;101420.69;4967941;28;20088;-69
2022/06/23 03:07:15;;;;;;;3.38;2.33;;;;;;;12.77;100.00;101410.94;4992330;28;20046;-69
2022/06/23 03:09:49;;;;;;;2.45;1.70;;;;;;;12.75;100.00;101397.81;5006901;28;20046;-70
2022/06/23 03:12:18;;;;;;;3.83;2.20;;;;;;;12.77;100.00;101401.16;5007566;28;20458;-69
2022/06/23 03:14:51;;;;;;;3.40;1.63;;;;;;;12.80;100.00;101409.78;5007244;28;20049;-70
2022/06/23 03:17:29;;;;;;;6.72;1.90;;;;;;;12.85;100.00;101412.84;5006409;28;20121;-70
2022/06/23 03:20:10;;;;;;;2.95;1.55;;;;;;;12.88;100.00;101417.81;5006628;28;20065;-69
2022/06/23 03:22:46;;;;;;;2.80;2.08;;;;;;;12.87;100.00;101405.53;5006265;28;20065;-69
2022/06/23 03:25:50;;;;;;;2.97;1.40;;;;;;;12.94;100.00;101409.28;5005489;28;20018;-70
2022/06/23 03:28:23;;;;;;;3.85;1.60;;;;;;;12.98;100.00;101408.00;5062063;28;20537;-70
2022/06/23 03:30:59;;;;;;;3.50;1.83;;;;;;;13.01;100.00;101410.31;5066883;28;20097;-70
2022/06/23 03:33:43;;;;;;;2.83;1.98;;;;;;;13.01;100.00;101418.28;5068629;28;20264;-70
2022/06/23 03:36:27;;;;;;;3.45;2.05;;;;;;;12.97;100.00;101419.56;5083183;28;20020;-70
2022/06/23 03:42:28;;;;;;;3.28;1.73;;;;;;;12.86;100.00;101425.91;5068550;28;20043;-70
2022/06/23 03:45:15;;;;;;;3.63;2.15;;;;;;;12.87;100.00;101424.09;5006871;28;20045;-70
2022/06/23 03:47:55;;;;;;;10.73;2.35;;;;;;;12.81;100.00;101438.78;5005691;28;20022;-69
2022/06/23 03:50:49;;;;;;;6.57;2.30;;;;;;;12.70;100.00;101434.53;5006605;28;20549;-70
2022/06/23 03:53:21;;;;;;;3.65;2.15;;;;;;;12.66;100.00;101432.34;5004462;28;20409;-70
2022/06/23 03:55:51;;;;;;;3.88;1.80;;;;;;;12.60;100.00;101428.47;5005786;28;20036;-70
2022/06/23 03:58:31;;;;;;;3.88;1.92;;;;;;;12.60;100.00;101420.50;4991056;28;20425;-70
2022/06/23 04:01:30;;;;;;;4.23;2.20;;;;;;;12.80;100.00;101436.28;5003985;28;20080;-70
2022/06/23 04:04:14;;;;;;;3.42;1.58;;;;;;;12.89;100.00;101433.56;5003241;28;20034;-70
2022/06/23 04:06:42;;;;;;;3.25;2.38;;;;;;;12.96;100.00;101431.16;5007133;28;20057;-70
2022/06/23 04:09:13;;;;;;;3.40;2.28;;;;;;;13.07;100.00;101425.63;5009974;28;20422;-70
2022/06/23 04:12:04;;;;;;;3.95;2.40;;;;;;;13.17;100.00;101434.31;5010125;28;20026;-70
2022/06/23 04:14:48;;;;;;;5.97;1.73;;;;;;;13.28;100.00;101429.75;5010050;28;20025;-70
2022/06/23 04:17:20;;;;;;;2.30;1.77;;;;;;;13.36;100.00;101440.47;5070475;28;20171;-70
2022/06/23 04:19:59;;;;;;;4.03;1.23;;;;;;;13.48;100.00;101441.88;5070914;28;20055;-70
2022/06/23 04:22:46;;;;;;;4.53;1.85;;;;;;;13.63;100.00;101431.56;5070942;28;20024;-70
2022/06/23 04:25:17;;;;;;;4.53;3.42;;;;;;;13.64;100.00;101425.25;5070937;28;20036;-70
2022/06/23 04:27:51;;;;;;;2.53;2.00;;;;;;;13.73;100.00;101428.78;5086881;28;20032;-70
2022/06/23 04:30:27;;;;;;;1.88;1.40;;;;;;;13.78;100.00;101415.88;5070421;28;20396;-70
2022/06/23 04:32:56;;;;;;;3.55;2.30;;;;;;;13.77;100.00;101409.75;5070992;28;20104;-70
2022/06/23 04:35:33;;;;;;;2.47;1.60;;;;;;;13.88;100.00;101421.91;5068656;28;20024;-70
2022/06/23 04:38:11;;;;;;;3.33;1.67;;;;;;;13.91;100.00;101418.94;5070983;28;20020;-70
2022/06/23 04:40:48;;;;;;;4.97;2.33;;;;;;;13.95;100.00;101420.28;5071347;28;20703;-70
2022/06/23 04:43:34;;;;;;;8.68;2.00;;;;;;;14.05;100.00;101411.41;5070444;28;20024;-70
2022/06/23 04:46:06;;;;;;;5.93;2.45;;;;;;;14.04;100.00;101401.75;5068936;28;20480;-70
2022/06/23 04:48:50;;;;;;;4.20;1.88;;;;;;;14.21;100.00;101411.44;5068725;28;20028;-70
2022/06/23 04:51:57;;;;;;;3.53;1.90;;;;;;;14.30;100.00;101407.81;5069932;28;20170;-69
2022/06/23 04:54:32;;;;;;;2.85;1.67;;;;;;;14.46;100.00;101399.09;5064588;28;20495;-69
2022/06/23 04:57:20;;;;;;;8.05;2.30;;;;;;;14.70;100.00;101408.13;5069904;28;20538;-69
2022/06/23 04:59:52;;;;;;;5.60;2.63;;;;;;;14.95;100.00;101404.50;5072387;28;20021;-70
2022/06/23 05:02:31;;;;;;;3.00;1.77;;;;;;;15.16;100.00;101405.88;5068583;28;20078;-70
2022/06/23 05:05:14;;;;;;;3.08;2.17;;;;;;;15.41;100.00;101409.31;5064916;28;21078;-70
2022/06/23 05:07:42;;;;;;;5.07;3.13;;;;;;;15.63;100.00;101410.44;5062986;28;20041;-69
2022/06/23 05:10:18;;;;;;;4.40;2.65;;;;;;;15.62;100.00;101401.63;5064174;28;20047;-70
2022/06/23 05:12:49;;;;;;;4.05;3.08;;;;;;;15.75;100.00;101401.16;5064248;28;20036;-69
2022/06/23 05:15:25;;;;;;;4.57;2.67;;;;;;;15.80;100.00;101397.97;5066282;28;20036;-69
2022/06/23 05:17:57;;;;;;;5.97;3.33;;;;;;;15.85;100.00;101400.94;5066212;28;20020;-69
2022/06/23 05:20:40;;;;;;;4.88;3.00;;;;;;;16.05;100.00;101401.41;5065457;28;20024;-69
2022/06/23 05:23:15;;;;;;;11.02;3.25;;;;;;;16.09;100.00;101407.19;5065207;28;20052;-71
2022/06/23 05:25:46;;;;;;;9.50;3.05;;;;;;;16.25;100.00;101402.63;5066271;28;20081;-69
2022/06/23 05:28:25;;;;;;;4.82;2.58;;;;;;;16.28;100.00;101406.78;5064275;28;20059;-68
2022/06/23 05:30:55;;;;;;;7.78;3.22;;;;;;;16.37;100.00;101387.06;5082473;28;20060;-69
2022/06/23 05:33:25;;;;;;;5.80;2.80;;;;;;;16.71;100.00;101409.88;5063437;28;20063;-70
2022/06/23 05:36:19;;;;;;;3.58;2.00;;;;;;;16.88;100.00;101407.97;5064037;28;20498;-70
2022/06/23 05:38:55;;;;;;;6.28;2.72;;;;;;;17.01;100.00;101412.69;5055573;28;20539;-70
2022/06/23 05:41:32;;;;;;;5.50;2.58;;;;;;;17.26;100.00;101408.78;5066028;28;20771;-70
2022/06/23 05:43:58;;;;;;;4.53;2.67;;;;;;;17.62;99.35;101391.31;5064497;28;20040;-70
2022/06/23 05:46:28;;;;;;;5.18;2.75;;;;;;;17.77;96.13;101402.81;5064088;28;20024;-70
2022/06/23 05:49:15;;;;;;;2.75;2.30;;;;;;;17.95;95.73;101399.78;5062614;28;20039;-70
2022/06/23 05:51:55;;;;;;;4.55;2.55;;;;;;;17.72;95.68;101393.69;5062103;28;20031;-70
2022/06/23 05:54:30;;;;;;;4.70;2.55;;;;;;;17.68;95.72;101396.72;5063952;28;20040;-73
2022/06/23 05:57:21;;;;;;;4.05;2.70;;;;;;;17.75;96.70;101409.34;5060574;28;20240;-71
2022/06/23 06:00:01;;;;;;;3.78;2.15;;;;;;;17.90;95.27;101404.88;5062093;28;20526;-71
2022/06/23 06:02:42;;;;;;;6.60;2.80;;;;;;;18.04;94.75;101403.19;5063640;28;20476;-70
2022/06/23 06:05:20;;;;;;;5.88;2.63;;;;;;;18.09;94.18;101390.94;5063529;28;20081;-70
2022/06/23 06:07:46;;;;;;;5.43;2.33;;;;;;;18.10;93.13;101415.81;5062248;28;20045;-71
2022/06/23 06:10:22;;;;;;;4.53;2.75;;;;;;;18.37;92.57;101414.28;5065215;28;20519;-71
2022/06/23 06:12:50;;;;;;;4.00;2.28;;;;;;;18.45;91.73;101406.16;5065973;28;20021;-71
2022/06/23 06:15:21;;;;;;;2.60;1.73;;;;;;;18.37;91.64;101406.25;5064466;28;20042;-70
2022/06/23 06:17:49;;;;;;;4.07;2.45;;;;;;;18.43;91.45;101408.19;5065759;28;20450;-70
2022/06/23 06:20:16;;;;;;;5.45;2.88;;;;;;;18.34;91.22;101409.31;5067681;28;20017;-70
2022/06/23 06:23:04;;;;;;;5.88;2.80;;;;;;;18.23;91.38;101399.94;5066929;28;20037;-71
2022/06/23 06:25:31;;;;;;;3.50;2.60;;;;;;;18.50;92.51;101406.41;5058673;28;20336;-70
2022/06/23 06:28:09;;;;;;;8.50;3.05;;;;;;;18.68;89.50;101397.13;5065972;28;20116;-70
2022/06/23 06:30:38;;;;;;;4.57;3.15;;;;;;;18.36;89.14;101380.56;5066942;28;20019;-70
2022/06/23 06:33:04;;;;;;;3.10;2.35;;;;;;;18.54;91.17;101390.03;5066240;28;20028;-70
2022/06/23 06:35:42;;;;;;;4.53;3.13;;;;;;;19.13;89.35;101397.81;5080705;28;20032;-71
2022/06/23 06:38:15;;;;;;;7.35;2.83;;;;;;;19.76;87.09;101389.00;5065111;28;20078;-71
2022/06/23 06:40:45;;;;;;;6.63;2.47;;;;;;;19.89;86.75;101391.75;5064426;28;20024;-71
2022/06/23 06:43:19;;;;;;;4.00;3.00;;;;;;;20.39;82.83;101391.56;5066980;28;20119;-71
2022/06/23 06:45:45;;;;;;;5.00;3.53;;;;;;;20.51;82.63;101393.44;5066291;28;20052;-71
2022/06/23 06:48:29;;;;;;;8.07;3.03;;;;;;;20.52;80.74;101396.94;5066554;28;20531;-71
2022/06/23 06:51:02;;;;;;;3.15;2.50;;;;;;;20.72;79.01;101391.66;5065449;28;20419;-71
2022/06/23 06:53:37;;;;;;;4.07;2.72;;;;;;;21.05;79.14;101390.84;5065234;28;20044;-71
2022/06/23 06:56:11;;;;;;;5.88;3.30;;;;;;;21.50;75.79;101396.44;5065336;28;20472;-71
2022/06/23 06:58:40;;;;;;;3.60;2.85;;;;;;;21.24;76.24;101387.34;5065884;28;20032;-71
2022/06/23 07:01:11;;;;;;;5.53;3.15;;;;;;;21.41;76.18;101373.50;5066936;28;20020;-71
2022/06/23 07:03:41;;;;;;;4.03;2.60;;;;;;;21.94;75.05;101387.63;5081965;28;20032;-72
2022/06/23 07:06:12;;;;;;;3.65;2.35;;;;;;;22.34;73.19;101390.19;5053855;28;20087;-71
2022/06/23 07:08:52;;;;;;;3.83;2.65;;;;;;;22.50;74.45;101393.44;5065350;28;20032;-70
2022/06/23 07:11:31;;;;;;;4.97;3.22;;;;;;;22.21;72.90;101395.63;5068779;28;20038;-71
2022/06/23 07:14:03;;;;;;;3.85;2.65;;;;;;;22.50;72.07;101394.25;5068419;28;20301;-70
2022/06/23 07:16:44;;;;;;;4.15;2.70;;;;;;;22.95;70.51;101394.16;5065055;28;20381;-71
2022/06/23 07:19:12;;;;;;;2.67;2.00;;;;;;;23.21;70.66;101392.28;5064917;28;20024;-71
2022/06/23 07:22:03;;;;;;;3.60;2.28;;;;;;;23.86;69.85;101391.06;5066536;28;20459;-70
2022/06/23 07:24:36;;;;;;;5.93;2.70;;;;;;;23.72;68.93;101380.41;5056430;28;20032;-70
2022/06/23 07:27:31;;;;;;;3.67;2.15;;;;;;;24.45;66.08;101384.06;5066142;28;20036;-70
2022/06/23 07:30:26;;;;;;;2.97;1.83;;;;;;;24.89;64.66;101379.31;5056887;28;20036;-70
2022/06/23 07:33:12;;;;;;;4.78;2.50;;;;;;;24.37;66.09;101387.09;5062622;28;20040;-71
2022/06/23 07:35:54;;;;;;;3.08;2.00;;;;;;;24.78;67.00;101388.19;5066703;28;20081;-71
2022/06/23 07:38:31;;;;;;;4.20;2.17;;;;;;;25.25;64.73;101383.69;5066515;28;20020;-71
2022/06/23 07:41:22;;;;;;;3.28;2.38;;;;;;;25.37;64.11;101380.16;5064187;28;20070;-71
2022/06/23 07:43:59;;;;;;;3.38;2.55;;;;;;;25.04;65.03;101385.06;5053793;28;20706;-71
2022/06/23 07:46:24;;;;;;;3.88;2.05;;;;;;;26.03;63.38;101380.78;5065218;28;20013;-71
2022/06/23 07:48:50;;;;;;;4.00;2.10;;;;;;;25.98;62.48;101367.16;5066417;28;20032;-71
2022/06/23 07:51:15;;;;;;;4.78;2.47;;;;;;;25.66;62.41;101383.78;5081220;28;20488;-71
2022/06/23 07:53:44;;;;;;;3.10;2.28;;;;;;;25.71;62.37;101397.41;5048698;28;20116;-71
2022/06/23 07:56:30;;;;;;;3.47;1.80;;;;;;;26.52;60.33;101394.69;5066635;28;20040;-71
2022/06/23 07:59:23;;;;;;;6.50;2.15;;;;;;;26.10;60.46;101384.16;5065138;28;20054;-71
2022/06/23 08:01:54;;;;;;;5.22;1.65;;;;;;;25.98;60.68;101375.25;5066342;28;20563;-71
2022/06/23 08:04:47;;;;;;;4.55;2.22;;;;;;;27.15;59.77;101381.13;5066512;28;20353;-71
2022/06/23 08:07:12;;;;;;;3.63;1.52;;;;;;;27.56;57.17;101384.47;5065543;28;20056;-71
2022/06/23 08:09:44;;;;;;;4.32;2.25;;;;;;;27.46;54.49;101391.38;5065742;28;20553;-71
2022/06/23 08:18:01;;;;;;;3.63;1.85;;;;;;;27.51;55.53;101381.69;5066591;28;20065;-71
2022/06/23 08:20:31;;;;;;;2.28;1.90;;;;;;;27.78;55.85;101369.00;5066340;28;20032;-71
2022/06/23 08:22:56;;;;;;;5.50;2.72;;;;;;;27.57;54.55;101370.66;5065840;28;20099;-71
2022/06/23 08:25:22;;;;;;;3.65;2.25;;;;;;;28.05;55.09;101371.00;5064719;28;20039;-71
2022/06/23 08:27:52;;;;;;;2.50;1.77;;;;;;;28.30;54.17;101365.81;5066711;28;20438;-71
2022/06/23 08:30:17;;;;;;;;;;;;;;;27.72;54.04;101367.31;5065806;28;20027;-71
2022/06/23 08:32:46;;;;;;;5.05;2.15;;;;;;;28.56;52.67;101363.38;5065927;28;20003;-71
2022/06/23 08:35:16;;;;;;;3.72;1.77;;;;;;;29.30;52.46;101370.75;5081485;28;20047;-71
2022/06/23 08:37:49;;;;;;;3.65;2.33;;;;;;;28.74;53.69;101345.88;5065664;28;20044;-71
2022/06/23 08:40:47;;;;;;;5.03;2.13;;;;;;;29.64;52.52;101339.66;5064760;28;20376;-71
2022/06/23 08:43:29;;;;;;;2.60;2.20;;;;;;;30.58;51.45;101334.19;4988223;28;20414;-71
2022/06/23 08:46:15;;;;;;;8.25;2.60;;;;;;;31.64;49.56;101340.53;5003592;28;20520;-71
2022/06/23 08:48:54;;;;;;;3.08;2.28;;;;;;;31.17;49.68;101337.13;5003363;28;20125;-71
2022/06/23 08:51:25;;;;;;;3.85;2.25;;;;;;;31.74;49.36;101317.84;5002443;28;20034;-71
2022/06/23 08:54:27;;;;;;;3.50;2.45;;;;;;;31.87;48.96;101333.59;5006259;28;20076;-71
2022/06/23 08:57:18;;;;;;;4.47;2.45;;;;;;;31.19;50.22;101325.13;5004544;28;20041;-71
2022/06/23 08:59:52;;;;;;;7.25;2.70;;;;;;;30.87;49.45;101329.00;5006760;28;20368;-71
2022/06/23 09:02:24;;;;;;;4.28;1.90;;;;;;;30.09;52.35;101310.94;5006582;28;20052;-71
2022/06/23 09:05:04;;;;;;;2.58;1.92;;;;;;;30.10;52.93;101326.22;5005948;28;20110;-71
2022/06/23 09:07:53;;;;;;;4.15;2.10;;;;;;;32.21;49.18;101324.66;5006472;28;20057;-71
2022/06/23 09:10:36;;;;;;;3.80;2.03;;;;;;;32.54;48.61;101316.78;5006260;28;20030;-71
2022/06/23 09:13:29;;;;;;;4.90;2.08;;;;;;;31.72;49.32;101330.94;5006180;28;20100;-72
2022/06/23 09:16:06;;;;;;;4.88;2.00;;;;;;;33.37;47.36;101334.00;5006353;28;20086;-71
2022/06/23 09:19:04;;;;;;;3.10;1.88;;;;;;;32.47;48.70;101329.91;5027669;28;20484;-72
2022/06/23 09:21:53;;;;;;;4.07;2.08;;;;;;;32.48;46.77;101326.09;5067196;28;20055;-72
2022/06/23 09:24:54;;;;;;;2.45;1.55;;;;;;;32.55;46.90;101316.47;5068942;28;20553;-72
2022/06/23 09:27:26;;;;;;;2.65;1.80;;;;;;;32.48;47.43;101309.72;5066431;28;20285;-71
2022/06/23 09:30:12;;;;;;;2.72;1.60;;;;;;;32.42;48.01;101308.13;5066757;28;20020;-71
2022/06/23 09:32:55;;;;;;;3.40;2.47;;;;;;;32.53;47.65;101301.47;5067645;28;20040;-71
2022/06/23 09:35:42;;;;;;;4.72;2.55;;;;;;;31.40;48.22;101304.03;5067273;28;20024;-70
2022/06/23 09:38:23;;;;;;;4.88;1.92;;;;;;;32.46;45.57;101303.72;5068804;28;20024;-71
2022/06/23 09:41:01;;;;;;;3.47;1.92;;;;;;;32.34;46.06;101290.44;5066287;28;20013;-71
2022/06/23 09:43:56;;;;;;;3.60;2.30;;;;;;;32.16;45.97;101309.16;5068793;28;20052;-71
2022/06/23 09:46:48;;;;;;;2.13;1.67;;;;;;;31.20;46.91;101304.94;5039666;28;20033;-71
2022/06/23 09:49:48;;;;;;;2.63;1.90;;;;;;;32.16;44.99;101316.50;5068969;28;20016;-71
2022/06/23 09:52:36;;;;;;;3.47;1.77;;;;;;;31.33;46.49;101301.63;5067697;28;20056;-71
2022/06/23 09:55:24;;;;;;;2.58;1.77;;;;;;;32.44;44.60;101297.72;5065698;28;20036;-71
2022/06/23 09:57:50;;;;;;;2.85;1.48;;;;;;;32.58;45.85;101294.06;5068057;28;20025;-71
2022/06/23 10:00:25;;;;;;;16.30;2.85;;;;;;;32.65;44.81;101285.53;5068545;28;20665;-71
2022/06/23 10:03:09;;;;;;;4.55;2.38;;;;;;;32.77;44.19;101296.91;5064914;28;20350;-71
2022/06/23 10:05:40;;;;;;;4.90;1.95;;;;;;;31.56;45.88;101295.53;5068681;28;20025;-71
2022/06/23 10:08:18;;;;;;;3.58;1.85;;;;;;;32.39;43.81;101285.72;5068067;28;20029;-71
2022/06/23 10:10:49;;;;;;;2.67;1.48;;;;;;;33.88;43.13;101289.53;5060020;28;20025;-71
2022/06/23 10:13:40;;;;;;;4.10;1.45;;;;;;;33.57;43.00;101303.63;5068672;28;20040;-71
2022/06/23 10:16:39;;;;;;;2.25;1.50;;;;;;;32.87;43.02;101292.44;5068424;28;20032;-71
2022/06/23 10:19:29;;;;;;;2.22;1.20;;;;;;;33.35;43.59;101287.78;5068292;28;20090;-71
2022/06/23 10:22:16;;;;;;;1.73;1.23;;;;;;;33.70;42.66;101290.38;5065287;28;20052;-71
2022/06/23 10:25:00;;;;;;;3.65;1.38;;;;;;;31.82;45.56;101276.31;5066606;28;20025;-71
2022/06/23 10:27:44;;;;;;;2.15;1.48;;;;;;;33.05;43.46;101288.94;5066304;28;20028;-71
2022/06/23 10:30:45;;;;;;;2.15;1.52;;;;;;;32.85;44.49;101280.97;5065371;28;20024;-71
2022/06/23 10:33:30;;;;;;;6.25;1.70;;;;;;;33.23;43.58;101290.13;5066041;28;20025;-71
2022/06/23 10:36:38;;;;;;;2.78;1.25;;;;;;;32.32;43.42;101289.91;5067345;28;20027;-71
2022/06/23 10:39:28;;;;;;;3.80;1.70;;;;;;;32.78;43.14;101287.59;5057990;28;20047;-71
2022/06/23 10:42:14;;;;;;;3.33;1.60;;;;;;;32.21;45.59;101261.03;5076958;28;20026;-71
2022/06/23 10:45:05;;;;;;;5.57;1.65;;;;;;;32.95;43.25;101253.53;5065904;28;20032;-72
2022/06/23 10:47:46;;;;;;;2.75;1.55;;;;;;;33.07;42.23;101259.41;5066161;28;20028;-71
2022/06/23 10:51:08;;;;;;;3.50;1.80;;;;;;;32.76;42.63;101257.00;5067161;28;20067;-71
2022/06/23 10:54:07;;;;;;;3.05;1.00;;;;;;;34.22;39.92;101256.44;5021206;28;20040;-71
2022/06/23 10:56:32;;;;;;;2.75;1.10;;;;;;;34.06;38.49;101244.09;5015827;28;20072;-71
2022/06/23 10:59:51;;;;;;;1.73;1.07;;;;;;;35.23;40.70;101257.63;5020606;28;20045;-72
2022/06/23 11:02:41;;;;;;;1.63;1.00;;;;;;;35.03;37.52;101255.25;4976678;28;20281;-71
2022/06/23 11:05:34;;;;;;;3.92;1.30;;;;;;;33.24;39.46;101249.91;4978100;28;20113;-71
2022/06/23 11:08:05;;;;;;;2.03;1.10;;;;;;;34.09;38.69;101243.50;4975603;28;20047;-71
2022/06/23 11:10:58;;;;;;;1.70;1.17;;;;;;;34.37;38.60;101240.88;4974426;28;20046;-71
2022/06/23 11:13:38;;;;;;;1.40;0.90;;;;;;;33.55;38.81;101242.91;4979563;28;20453;-71
2022/06/23 11:16:40;;;;;;;2.45;0.90;;;;;;;33.89;40.38;101233.69;4971660;28;20030;-71
2022/06/23 11:19:16;;;;;;;2.03;0.90;;;;;;;33.98;39.00;101231.88;4972503;28;20512;-71
2022/06/23 11:21:42;;;;;;;2.15;0.95;;;;;;;33.66;39.26;101229.13;4966802;28;20623;-71
2022/06/23 11:24:35;;;;;;;1.90;1.07;;;;;;;33.24;39.65;101211.63;4975753;28;20044;-71
2022/06/23 11:27:09;;;;;;;1.55;1.00;;;;;;;33.29;39.61;101231.50;4970555;28;20309;-71
2022/06/23 11:30:06;;;;;;;1.98;1.10;;;;;;;32.66;41.42;101231.69;4975774;28;20085;-71
2022/06/23 11:32:42;;;;;;;1.60;1.00;;;;;;;32.95;41.44;101220.72;4974769;28;20042;-71
2022/06/23 11:35:07;;;;;;;1.17;0.98;;;;;;;32.64;40.74;101221.03;4959010;28;20018;-71
2022/06/23 11:37:32;;;;;;;3.40;1.13;;;;;;;32.12;42.07;101222.59;5067556;28;20040;-71
2022/06/23 11:40:16;;;;;;;3.80;1.37;;;;;;;32.03;41.30;101216.13;5067642;28;20778;-71
2022/06/23 11:43:22;;;;;;;3.97;0.90;;;;;;;33.60;40.20;101209.22;5064707;28;20680;-71
2022/06/23 11:46:09;;;;;;;1.52;1.20;;;;;;;32.64;41.72;101210.09;5004801;28;20026;-71
2022/06/23 11:48:49;;;;;;;1.92;0.82;;;;;;;34.08;39.82;101200.81;5004898;28;20033;-71
2022/06/23 11:51:36;;;;;;;3.25;1.30;;;;;;;33.80;40.47;101183.47;5005015;28;20553;-71
2022/06/23 11:54:20;;;;;;;1.63;1.08;;;;;;;33.92;41.12;101194.75;5001164;28;20048;-71
2022/06/23 11:57:03;;;;;;;1.65;1.13;;;;;;;34.04;38.80;101199.78;5004601;28;20108;-71
2022/06/23 11:59:41;;;;;;;2.35;1.20;;;;;;;33.98;39.64;101207.25;5006001;28;20646;-71
2022/06/23 12:02:07;;;;;;;1.50;1.20;;;;;;;33.24;40.41;101195.22;5005345;28;20448;-71
2022/06/23 12:04:50;;;;;;;1.50;1.20;;;;;;;32.31;41.23;101193.47;5004735;28;20030;-71
2022/06/23 12:07:45;;;;;;;1.63;1.15;;;;;;;32.53;41.52;101193.03;4987066;28;20080;-71
2022/06/23 12:10:22;;;;;;;6.15;1.63;;;;;;;32.00;41.69;101192.16;5003665;28;20084;-71
2022/06/23 12:12:51;;;;;;;2.00;1.52;;;;;;;32.53;41.69;101194.94;5003384;28;20595;-71
2022/06/23 12:15:21;;;;;;;2.08;1.10;;;;;;;32.91;41.24;101192.34;5004098;28;20651;-71
2022/06/23 12:18:08;;;;;;;1.95;1.20;;;;;;;33.30;40.79;101172.16;5004540;28;20030;-71
2022/06/23 12:20:44;;;;;;;2.90;1.13;;;;;;;33.91;39.68;101181.38;5067833;28;20029;-71
2022/06/23 12:23:18;;;;;;;2.92;1.30;;;;;;;33.55;40.07;101179.16;5058517;28;20013;-71
2022/06/23 12:25:56;;;;;;;2.85;1.40;;;;;;;32.56;42.08;101176.06;5064171;28;20088;-71
2022/06/23 12:28:47;;;;;;;2.10;1.10;;;;;;;33.49;40.91;101172.13;5066254;28;20475;-71